sensor_id;sensor_type;location;lat;lon;timestamp;temperature;humidity
13992;DHT22;7070;53.586;9.692;2024-03-23T00:55:13;7.40;84.00
13992;DHT22;7070;53.586;9.692;2024-03-23T00:57:40;7.40;84.10
13992;DHT22;7070;53.586;9.692;2024-03-23T01:00:07;7.40;84.10
13992;DHT22;7070;53.586;9.692;2024-03-23T01:02:36;7.40;84.10
13992;DHT22;7070;53.586;9.692;2024-03-23T01:05:02;7.30;84.10
13992;DHT22;7070;53.586;9.692;2024-03-23T01:07:28;7.30;84.10
13992;DHT22;7070;53.586;9.692;2024-03-23T01:09:54;7.30;84.10
13992;DHT22;7070;53.586;9.692;2024-03-23T01:12:23;7.30;84.20
13992;DHT22;7070;53.586;9.692;2024-03-23T01:14:48;7.20;84.10
13992;DHT22;7070;53.586;9.692;2024-03-23T01:17:15;7.20;84.20
13992;DHT22;7070;53.586;9.692;2024-03-23T01:19:41;7.20;84.20
13992;DHT22;7070;53.586;9.692;2024-03-23T01:22:08;7.20;84.20
13992;DHT22;7070;53.586;9.692;2024-03-23T01:24:35;7.10;84.20
13992;DHT22;7070;53.586;9.692;2024-03-23T01:27:02;7.10;84.20
13992;DHT22;7070;53.586;9.692;2024-03-23T01:29:30;7.10;84.30
13992;DHT22;7070;53.586;9.692;2024-03-23T01:31:57;7.00;84.30
13992;DHT22;7070;53.586;9.692;2024-03-23T01:34:23;7.00;84.20
13992;DHT22;7070;53.586;9.692;2024-03-23T01:36:50;7.00;84.30
13992;DHT22;7070;53.586;9.692;2024-03-23T01:39:16;7.00;84.30
13992;DHT22;7070;53.586;9.692;2024-03-23T01:41:43;6.90;84.30
13992;DHT22;7070;53.586;9.692;2024-03-23T01:44:09;6.90;84.40
13992;DHT22;7070;53.586;9.692;2024-03-23T01:46:38;6.90;84.40
13992;DHT22;7070;53.586;9.692;2024-03-23T01:49:05;6.80;84.20
13992;DHT22;7070;53.586;9.692;2024-03-23T01:51:32;6.80;84.20
13992;DHT22;7070;53.586;9.692;2024-03-23T01:54:00;6.80;84.20
13992;DHT22;7070;53.586;9.692;2024-03-23T01:56:29;6.70;84.80
13992;DHT22;7070;53.586;9.692;2024-03-23T01:58:55;6.70;84.20
13992;DHT22;7070;53.586;9.692;2024-03-23T02:01:22;6.70;84.30
13992;DHT22;7070;53.586;9.692;2024-03-23T02:03:49;6.70;85.10
13992;DHT22;7070;53.586;9.692;2024-03-23T02:06:16;6.60;84.20
13992;DHT22;7070;53.586;9.692;2024-03-23T02:08:43;6.60;84.30
13992;DHT22;7070;53.586;9.692;2024-03-23T02:11:10;6.60;84.30
13992;DHT22;7070;53.586;9.692;2024-03-23T02:13:36;6.60;84.20
13992;DHT22;7070;53.586;9.692;2024-03-23T02:16:05;6.60;84.30
13992;DHT22;7070;53.586;9.692;2024-03-23T02:18:31;6.50;84.20
13992;DHT22;7070;53.586;9.692;2024-03-23T02:20:59;6.50;84.90
13992;DHT22;7070;53.586;9.692;2024-03-23T02:23:26;6.40;84.20
13992;DHT22;7070;53.586;9.692;2024-03-23T02:25:53;6.40;84.20
13992;DHT22;7070;53.586;9.692;2024-03-23T02:28:19;6.40;84.40
13992;DHT22;7070;53.586;9.692;2024-03-23T02:30:48;6.30;84.20
13992;DHT22;7070;53.586;9.692;2024-03-23T02:33:14;6.30;84.30
13992;DHT22;7070;53.586;9.692;2024-03-23T02:35:40;6.30;84.40
13992;DHT22;7070;53.586;9.692;2024-03-23T02:38:06;6.30;84.40
13992;DHT22;7070;53.586;9.692;2024-03-23T02:40:35;6.30;84.50
13992;DHT22;7070;53.586;9.692;2024-03-23T02:43:02;6.20;84.40
13992;DHT22;7070;53.586;9.692;2024-03-23T02:45:29;7.50;85.60
13992;DHT22;7070;53.586;9.692;2024-03-23T02:47:55;6.20;84.50
13992;DHT22;7070;53.586;9.692;2024-03-23T02:50:22;6.10;84.40
13992;DHT22;7070;53.586;9.692;2024-03-23T02:52:48;6.10;84.40
13992;DHT22;7070;53.586;9.692;2024-03-23T02:55:15;6.10;84.50
13992;DHT22;7070;53.586;9.692;2024-03-23T02:57:43;6.10;84.60
13992;DHT22;7070;53.586;9.692;2024-03-23T03:00:10;6.10;84.60
13992;DHT22;7070;53.586;9.692;2024-03-23T03:02:36;6.00;84.50
13992;DHT22;7070;53.586;9.692;2024-03-23T03:05:04;6.10;84.70
13992;DHT22;7070;53.586;9.692;2024-03-23T03:07:30;6.00;84.60
13992;DHT22;7070;53.586;9.692;2024-03-23T03:09:57;6.00;84.70
13992;DHT22;7070;53.586;9.692;2024-03-23T03:12:23;6.00;85.40
13992;DHT22;7070;53.586;9.692;2024-03-23T03:14:51;6.00;84.80
13992;DHT22;7070;53.586;9.692;2024-03-23T03:17:17;6.00;84.80
13992;DHT22;7070;53.586;9.692;2024-03-23T03:19:44;6.00;84.80
13992;DHT22;7070;53.586;9.692;2024-03-23T03:22:11;5.90;84.70
13992;DHT22;7070;53.586;9.692;2024-03-23T03:24:37;6.00;84.80
13992;DHT22;7070;53.586;9.692;2024-03-23T03:27:03;5.90;84.80
13992;DHT22;7070;53.586;9.692;2024-03-23T03:29:32;5.90;84.80
13992;DHT22;7070;53.586;9.692;2024-03-23T03:32:02;5.90;84.90
13992;DHT22;7070;53.586;9.692;2024-03-23T03:34:29;5.90;85.50
13992;DHT22;7070;53.586;9.692;2024-03-23T03:36:55;5.80;84.70
13992;DHT22;7070;53.586;9.692;2024-03-23T03:39:22;5.90;84.90
13992;DHT22;7070;53.586;9.692;2024-03-23T03:41:48;5.80;84.90
13992;DHT22;7070;53.586;9.692;2024-03-23T03:44:15;5.80;84.80
13992;DHT22;7070;53.586;9.692;2024-03-23T03:46:41;5.80;84.80
13992;DHT22;7070;53.586;9.692;2024-03-23T03:49:09;5.80;85.00
13992;DHT22;7070;53.586;9.692;2024-03-23T03:51:35;5.80;85.00
13992;DHT22;7070;53.586;9.692;2024-03-23T03:54:02;5.80;85.00
13992;DHT22;7070;53.586;9.692;2024-03-23T03:56:28;5.80;85.00
13992;DHT22;7070;53.586;9.692;2024-03-23T03:58:54;5.80;85.80
13992;DHT22;7070;53.586;9.692;2024-03-23T04:01:20;5.80;85.20
13992;DHT22;7070;53.586;9.692;2024-03-23T04:03:47;5.70;85.70
13992;DHT22;7070;53.586;9.692;2024-03-23T04:06:19;5.70;84.90
13992;DHT22;7070;53.586;9.692;2024-03-23T04:08:46;5.70;84.90
13992;DHT22;7070;53.586;9.692;2024-03-23T04:11:12;5.70;84.90
13992;DHT22;7070;53.586;9.692;2024-03-23T04:13:39;5.70;85.00
13992;DHT22;7070;53.586;9.692;2024-03-23T04:16:07;5.70;85.00
13992;DHT22;7070;53.586;9.692;2024-03-23T04:18:34;5.60;84.90
13992;DHT22;7070;53.586;9.692;2024-03-23T04:21:00;5.60;84.90
13992;DHT22;7070;53.586;9.692;2024-03-23T04:23:28;5.60;85.00
13992;DHT22;7070;53.586;9.692;2024-03-23T04:25:54;5.60;85.10
13992;DHT22;7070;53.586;9.692;2024-03-23T04:28:21;5.60;85.10
13992;DHT22;7070;53.586;9.692;2024-03-23T04:30:47;5.50;85.10
13992;DHT22;7070;53.586;9.692;2024-03-23T04:33:14;5.50;85.10
13992;DHT22;7070;53.586;9.692;2024-03-23T04:35:40;5.50;85.00
13992;DHT22;7070;53.586;9.692;2024-03-23T04:38:07;5.50;85.70
13992;DHT22;7070;53.586;9.692;2024-03-23T04:40:35;5.50;85.10
13992;DHT22;7070;53.586;9.692;2024-03-23T04:43:02;5.50;85.10
13992;DHT22;7070;53.586;9.692;2024-03-23T04:45:30;5.50;85.20
13992;DHT22;7070;53.586;9.692;2024-03-23T04:47:57;5.40;85.20
13992;DHT22;7070;53.586;9.692;2024-03-23T04:50:23;5.50;85.40
13992;DHT22;7070;53.586;9.692;2024-03-23T04:52:49;5.50;85.20
13992;DHT22;7070;53.586;9.692;2024-03-23T04:55:16;5.50;85.40
13992;DHT22;7070;53.586;9.692;2024-03-23T04:57:44;5.50;85.30
13992;DHT22;7070;53.586;9.692;2024-03-23T05:00:12;5.50;85.40
13992;DHT22;7070;53.586;9.692;2024-03-23T05:02:44;5.50;85.10
13992;DHT22;7070;53.586;9.692;2024-03-23T05:05:10;5.40;85.30
13992;DHT22;7070;53.586;9.692;2024-03-23T05:07:37;5.50;85.40
13992;DHT22;7070;53.586;9.692;2024-03-23T05:10:04;5.50;85.40
13992;DHT22;7070;53.586;9.692;2024-03-23T05:12:31;5.40;85.30
13992;DHT22;7070;53.586;9.692;2024-03-23T05:14:58;5.40;85.30
13992;DHT22;7070;53.586;9.692;2024-03-23T05:17:25;5.40;85.30
13992;DHT22;7070;53.586;9.692;2024-03-23T05:19:51;5.40;85.40
13992;DHT22;7070;53.586;9.692;2024-03-23T05:22:18;5.40;85.40
13992;DHT22;7070;53.586;9.692;2024-03-23T05:24:45;5.40;85.40
13992;DHT22;7070;53.586;9.692;2024-03-23T05:27:12;5.40;85.50
13992;DHT22;7070;53.586;9.692;2024-03-23T05:29:38;5.40;85.50
13992;DHT22;7070;53.586;9.692;2024-03-23T05:32:07;5.40;85.40
13992;DHT22;7070;53.586;9.692;2024-03-23T05:34:33;5.40;85.40
13992;DHT22;7070;53.586;9.692;2024-03-23T05:37:00;5.40;85.40
13992;DHT22;7070;53.586;9.692;2024-03-23T05:39:26;5.40;85.60
13992;DHT22;7070;53.586;9.692;2024-03-23T05:41:53;5.30;85.30
13992;DHT22;7070;53.586;9.692;2024-03-23T05:44:18;5.40;86.10
13992;DHT22;7070;53.586;9.692;2024-03-23T05:46:45;5.30;85.40
13992;DHT22;7070;53.586;9.692;2024-03-23T05:49:18;5.40;85.50
13992;DHT22;7070;53.586;9.692;2024-03-23T05:51:46;5.50;85.70
13992;DHT22;7070;53.586;9.692;2024-03-23T05:54:12;5.40;85.60
13992;DHT22;7070;53.586;9.692;2024-03-23T05:56:40;5.40;85.70
13992;DHT22;7070;53.586;9.692;2024-03-23T05:59:06;5.40;85.50
13992;DHT22;7070;53.586;9.692;2024-03-23T06:01:33;5.40;85.50
13992;DHT22;7070;53.586;9.692;2024-03-23T06:03:59;5.40;85.40
13992;DHT22;7070;53.586;9.692;2024-03-23T06:06:28;5.40;85.50
13992;DHT22;7070;53.586;9.692;2024-03-23T06:08:55;5.40;85.40
13992;DHT22;7070;53.586;9.692;2024-03-23T06:11:22;5.40;85.30
13992;DHT22;7070;53.586;9.692;2024-03-23T06:13:48;5.40;85.10
13992;DHT22;7070;53.586;9.692;2024-03-23T06:16:16;5.40;85.10
13992;DHT22;7070;53.586;9.692;2024-03-23T06:18:41;5.40;85.30
13992;DHT22;7070;53.586;9.692;2024-03-23T06:21:13;5.30;85.40
13992;DHT22;7070;53.586;9.692;2024-03-23T06:23:41;5.30;85.60
13992;DHT22;7070;53.586;9.692;2024-03-23T06:26:07;5.30;85.70
13992;DHT22;7070;53.586;9.692;2024-03-23T06:28:34;5.40;85.70
13992;DHT22;7070;53.586;9.692;2024-03-23T06:31:01;5.40;85.60
13992;DHT22;7070;53.586;9.692;2024-03-23T06:33:27;5.30;85.30
13992;DHT22;7070;53.586;9.692;2024-03-23T06:35:54;5.30;85.50
13992;DHT22;7070;53.586;9.692;2024-03-23T06:38:20;5.30;85.50
13992;DHT22;7070;53.586;9.692;2024-03-23T06:40:49;5.40;85.50
13992;DHT22;7070;53.586;9.692;2024-03-23T06:43:16;5.30;85.40
13992;DHT22;7070;53.586;9.692;2024-03-23T06:45:43;5.30;85.30
13992;DHT22;7070;53.586;9.692;2024-03-23T06:48:09;5.30;85.40
13992;DHT22;7070;53.586;9.692;2024-03-23T06:50:35;5.30;85.40
13992;DHT22;7070;53.586;9.692;2024-03-23T06:53:01;5.30;85.40
13992;DHT22;7070;53.586;9.692;2024-03-23T06:55:31;5.30;85.60
13992;DHT22;7070;53.586;9.692;2024-03-23T06:57:58;5.30;85.50
13992;DHT22;7070;53.586;9.692;2024-03-23T07:00:25;5.30;85.80
13992;DHT22;7070;53.586;9.692;2024-03-23T07:02:51;5.30;85.80
13992;DHT22;7070;53.586;9.692;2024-03-23T07:05:18;5.40;86.40
13992;DHT22;7070;53.586;9.692;2024-03-23T07:07:43;5.30;85.80
13992;DHT22;7070;53.586;9.692;2024-03-23T07:10:10;5.40;86.00
13992;DHT22;7070;53.586;9.692;2024-03-23T07:12:36;5.40;86.00
13992;DHT22;7070;53.586;9.692;2024-03-23T07:15:05;5.50;86.10
13992;DHT22;7070;53.586;9.692;2024-03-23T07:17:31;5.50;86.20
13992;DHT22;7070;53.586;9.692;2024-03-23T07:20:00;5.50;86.20
13992;DHT22;7070;53.586;9.692;2024-03-23T07:22:27;5.60;86.40
13992;DHT22;7070;53.586;9.692;2024-03-23T07:24:54;5.60;86.30
13992;DHT22;7070;53.586;9.692;2024-03-23T07:27:20;5.70;86.50
13992;DHT22;7070;53.586;9.692;2024-03-23T07:29:47;5.80;86.60
13992;DHT22;7070;53.586;9.692;2024-03-23T07:32:14;5.80;86.80
13992;DHT22;7070;53.586;9.692;2024-03-23T07:34:41;5.90;87.00
13992;DHT22;7070;53.586;9.692;2024-03-23T07:37:09;6.10;87.20
13992;DHT22;7070;53.586;9.692;2024-03-23T07:39:36;6.20;87.20
13992;DHT22;7070;53.586;9.692;2024-03-23T07:42:03;6.30;87.40
13992;DHT22;7070;53.586;9.692;2024-03-23T07:44:30;6.40;87.30
13992;DHT22;7070;53.586;9.692;2024-03-23T07:46:56;6.40;88.10
13992;DHT22;7070;53.586;9.692;2024-03-23T07:49:25;6.60;87.50
13992;DHT22;7070;53.586;9.692;2024-03-23T07:51:59;6.70;87.60
13992;DHT22;7070;53.586;9.692;2024-03-23T07:54:26;6.70;87.50
13992;DHT22;7070;53.586;9.692;2024-03-23T07:56:52;6.80;87.60
13992;DHT22;7070;53.586;9.692;2024-03-23T07:59:19;7.00;87.70
13992;DHT22;7070;53.586;9.692;2024-03-23T08:01:45;7.10;87.80
13992;DHT22;7070;53.586;9.692;2024-03-23T08:04:12;7.10;87.70
13992;DHT22;7070;53.586;9.692;2024-03-23T08:06:39;7.30;87.80
13992;DHT22;7070;53.586;9.692;2024-03-23T08:09:06;7.40;87.80
13992;DHT22;7070;53.586;9.692;2024-03-23T08:11:32;7.40;87.70
13992;DHT22;7070;53.586;9.692;2024-03-23T08:14:00;7.50;87.80
13992;DHT22;7070;53.586;9.692;2024-03-23T08:16:27;7.60;88.60
13992;DHT22;7070;53.586;9.692;2024-03-23T08:18:54;7.70;87.80
13992;DHT22;7070;53.586;9.692;2024-03-23T08:21:21;7.80;87.80
13992;DHT22;7070;53.586;9.692;2024-03-23T08:23:49;7.90;87.80
13992;DHT22;7070;53.586;9.692;2024-03-23T08:26:16;8.00;87.90
13992;DHT22;7070;53.586;9.692;2024-03-23T08:28:43;8.10;88.00
13992;DHT22;7070;53.586;9.692;2024-03-23T08:31:10;8.30;88.20
13992;DHT22;7070;53.586;9.692;2024-03-23T08:33:38;8.30;88.10
13992;DHT22;7070;53.586;9.692;2024-03-23T08:36:06;8.40;88.00
13992;DHT22;7070;53.586;9.692;2024-03-23T08:38:33;8.50;87.90
13992;DHT22;7070;53.586;9.692;2024-03-23T08:41:01;8.80;87.90
13992;DHT22;7070;53.586;9.692;2024-03-23T08:43:30;8.80;87.90
13992;DHT22;7070;53.586;9.692;2024-03-23T08:46:03;8.90;87.90
13992;DHT22;7070;53.586;9.692;2024-03-23T08:48:31;9.00;88.00
13992;DHT22;7070;53.586;9.692;2024-03-23T08:51:01;9.20;88.50
13992;DHT22;7070;53.586;9.692;2024-03-23T08:53:28;9.40;88.60
13992;DHT22;7070;53.586;9.692;2024-03-23T08:55:55;9.70;88.80
13992;DHT22;7070;53.586;9.692;2024-03-23T08:58:24;9.80;89.10
13992;DHT22;7070;53.586;9.692;2024-03-23T09:00:50;10.10;87.10
13992;DHT22;7070;53.586;9.692;2024-03-23T09:03:17;10.20;87.20
13992;DHT22;7070;53.586;9.692;2024-03-23T09:05:43;10.30;86.10
13992;DHT22;7070;53.586;9.692;2024-03-23T09:08:10;10.50;85.60
13992;DHT22;7070;53.586;9.692;2024-03-23T09:10:38;10.80;85.10
13992;DHT22;7070;53.586;9.692;2024-03-23T09:13:05;10.70;84.50
13992;DHT22;7070;53.586;9.692;2024-03-23T09:15:34;10.80;84.10
13992;DHT22;7070;53.586;9.692;2024-03-23T09:18:01;10.90;83.50
13992;DHT22;7070;53.586;9.692;2024-03-23T09:20:28;11.00;83.40
13992;DHT22;7070;53.586;9.692;2024-03-23T09:22:54;11.10;83.40
13992;DHT22;7070;53.586;9.692;2024-03-23T09:25:20;11.20;83.10
13992;DHT22;7070;53.586;9.692;2024-03-23T09:27:47;11.30;82.90
13992;DHT22;7070;53.586;9.692;2024-03-23T09:30:14;11.40;82.50
13992;DHT22;7070;53.586;9.692;2024-03-23T09:32:43;11.50;82.10
13992;DHT22;7070;53.586;9.692;2024-03-23T09:35:09;11.60;81.60
13992;DHT22;7070;53.586;9.692;2024-03-23T09:37:36;11.70;81.10
13992;DHT22;7070;53.586;9.692;2024-03-23T09:40:02;11.70;80.60
13992;DHT22;7070;53.586;9.692;2024-03-23T09:42:30;11.70;80.20
13992;DHT22;7070;53.586;9.692;2024-03-23T09:44:57;11.70;79.80
13992;DHT22;7070;53.586;9.692;2024-03-23T09:47:25;11.70;80.10
13992;DHT22;7070;53.586;9.692;2024-03-23T09:49:53;11.60;78.80
13992;DHT22;7070;53.586;9.692;2024-03-23T09:52:21;11.60;78.90
13992;DHT22;7070;53.586;9.692;2024-03-23T09:54:47;11.60;78.90
13992;DHT22;7070;53.586;9.692;2024-03-23T09:57:13;11.50;78.60
13992;DHT22;7070;53.586;9.692;2024-03-23T09:59:39;11.50;78.80
13992;DHT22;7070;53.586;9.692;2024-03-23T10:02:07;11.50;78.80
13992;DHT22;7070;53.586;9.692;2024-03-23T10:04:39;11.50;78.40
13992;DHT22;7070;53.586;9.692;2024-03-23T10:07:12;11.50;78.30
13992;DHT22;7070;53.586;9.692;2024-03-23T10:09:38;11.40;78.30
13992;DHT22;7070;53.586;9.692;2024-03-23T10:12:09;11.40;78.50
13992;DHT22;7070;53.586;9.692;2024-03-23T10:14:36;11.50;79.00
13992;DHT22;7070;53.586;9.692;2024-03-23T10:17:15;11.60;78.80
13992;DHT22;7070;53.586;9.692;2024-03-23T10:19:43;11.70;78.70
13992;DHT22;7070;53.586;9.692;2024-03-23T10:22:13;11.90;78.00
13992;DHT22;7070;53.586;9.692;2024-03-23T10:24:40;11.90;77.70
13992;DHT22;7070;53.586;9.692;2024-03-23T10:27:06;11.90;77.90
13992;DHT22;7070;53.586;9.692;2024-03-23T10:29:33;12.00;76.90
13992;DHT22;7070;53.586;9.692;2024-03-23T10:32:08;12.00;76.80
13992;DHT22;7070;53.586;9.692;2024-03-23T10:34:35;12.00;77.60
13992;DHT22;7070;53.586;9.692;2024-03-23T10:37:02;12.00;76.90
13992;DHT22;7070;53.586;9.692;2024-03-23T10:39:33;12.10;77.10
13992;DHT22;7070;53.586;9.692;2024-03-23T10:42:04;12.30;77.50
13992;DHT22;7070;53.586;9.692;2024-03-23T10:44:31;12.40;77.50
13992;DHT22;7070;53.586;9.692;2024-03-23T10:46:58;12.60;77.40
13992;DHT22;7070;53.586;9.692;2024-03-23T10:49:30;12.70;76.90
13992;DHT22;7070;53.586;9.692;2024-03-23T10:51:57;12.90;76.70
13992;DHT22;7070;53.586;9.692;2024-03-23T10:54:25;13.00;76.30
13992;DHT22;7070;53.586;9.692;2024-03-23T10:56:58;13.10;75.80
13992;DHT22;7070;53.586;9.692;2024-03-23T10:59:26;13.20;75.50
13992;DHT22;7070;53.586;9.692;2024-03-23T11:01:56;13.20;74.80
13992;DHT22;7070;53.586;9.692;2024-03-23T11:04:33;13.20;74.70
13992;DHT22;7070;53.586;9.692;2024-03-23T11:07:00;13.20;74.60
13992;DHT22;7070;53.586;9.692;2024-03-23T11:09:40;13.20;74.20
13992;DHT22;7070;53.586;9.692;2024-03-23T11:12:28;13.30;74.90
13992;DHT22;7070;53.586;9.692;2024-03-23T11:15:01;13.30;74.30
13992;DHT22;7070;53.586;9.692;2024-03-23T11:17:28;13.30;73.80
13992;DHT22;7070;53.586;9.692;2024-03-23T11:19:56;13.30;73.40
13992;DHT22;7070;53.586;9.692;2024-03-23T11:22:43;13.20;73.30
13992;DHT22;7070;53.586;9.692;2024-03-23T11:25:21;13.20;73.40
13992;DHT22;7070;53.586;9.692;2024-03-23T11:27:52;13.20;73.70
13992;DHT22;7070;53.586;9.692;2024-03-23T11:30:20;13.10;73.40
13992;DHT22;7070;53.586;9.692;2024-03-23T11:32:49;13.10;73.00
13992;DHT22;7070;53.586;9.692;2024-03-23T11:35:29;13.10;73.40
13992;DHT22;7070;53.586;9.692;2024-03-23T11:38:04;13.20;73.90
13992;DHT22;7070;53.586;9.692;2024-03-23T11:40:32;13.30;73.80
13992;DHT22;7070;53.586;9.692;2024-03-23T11:43:00;13.30;72.20
13992;DHT22;7070;53.586;9.692;2024-03-23T11:45:29;13.20;71.30
13992;DHT22;7070;53.586;9.692;2024-03-23T11:48:04;13.00;70.80
13992;DHT22;7070;53.586;9.692;2024-03-23T11:50:31;12.80;70.10
13992;DHT22;7070;53.586;9.692;2024-03-23T11:53:13;12.50;69.40
13992;DHT22;7070;53.586;9.692;2024-03-23T11:55:47;12.10;69.00
13992;DHT22;7070;53.586;9.692;2024-03-23T11:58:16;11.70;69.70
13992;DHT22;7070;53.586;9.692;2024-03-23T12:00:49;11.30;70.50
13992;DHT22;7070;53.586;9.692;2024-03-23T12:03:16;10.90;71.00
13992;DHT22;7070;53.586;9.692;2024-03-23T12:05:48;10.70;71.70
13992;DHT22;7070;53.586;9.692;2024-03-23T12:08:21;10.40;72.40
13992;DHT22;7070;53.586;9.692;2024-03-23T12:10:50;10.20;73.20
13992;DHT22;7070;53.586;9.692;2024-03-23T12:13:19;10.10;74.10
13992;DHT22;7070;53.586;9.692;2024-03-23T12:15:47;10.00;75.00
13992;DHT22;7070;53.586;9.692;2024-03-23T12:18:13;10.00;75.50
13992;DHT22;7070;53.586;9.692;2024-03-23T12:20:40;10.00;75.70
13992;DHT22;7070;53.586;9.692;2024-03-23T12:23:11;10.10;75.40
13992;DHT22;7070;53.586;9.692;2024-03-23T12:25:38;10.00;73.90
13992;DHT22;7070;53.586;9.692;2024-03-23T12:28:05;9.70;74.60
13992;DHT22;7070;53.586;9.692;2024-03-23T12:30:35;9.40;75.00
13992;DHT22;7070;53.586;9.692;2024-03-23T12:33:02;9.00;75.40
13992;DHT22;7070;53.586;9.692;2024-03-23T12:35:29;8.70;76.00
13992;DHT22;7070;53.586;9.692;2024-03-23T12:37:55;8.40;76.80
13992;DHT22;7070;53.586;9.692;2024-03-23T12:40:22;8.10;77.60
13992;DHT22;7070;53.586;9.692;2024-03-23T12:42:48;8.00;78.80
13992;DHT22;7070;53.586;9.692;2024-03-23T12:45:15;7.90;80.50
13992;DHT22;7070;53.586;9.692;2024-03-23T12:47:43;7.90;80.60
13992;DHT22;7070;53.586;9.692;2024-03-23T12:50:10;7.90;81.30
13992;DHT22;7070;53.586;9.692;2024-03-23T12:52:36;8.00;81.80
13992;DHT22;7070;53.586;9.692;2024-03-23T12:55:04;8.00;82.20
13992;DHT22;7070;53.586;9.692;2024-03-23T12:57:31;8.10;82.60
13992;DHT22;7070;53.586;9.692;2024-03-23T12:59:58;8.20;82.90
13992;DHT22;7070;53.586;9.692;2024-03-23T13:02:24;8.30;83.30
13992;DHT22;7070;53.586;9.692;2024-03-23T13:04:53;8.30;83.40
13992;DHT22;7070;53.586;9.692;2024-03-23T13:07:20;8.40;83.60
13992;DHT22;7070;53.586;9.692;2024-03-23T13:09:50;8.40;83.50
13992;DHT22;7070;53.586;9.692;2024-03-23T13:12:16;8.50;83.50
13992;DHT22;7070;53.586;9.692;2024-03-23T13:14:44;8.40;83.40
13992;DHT22;7070;53.586;9.692;2024-03-23T13:17:10;8.50;83.90
13992;DHT22;7070;53.586;9.692;2024-03-23T13:19:37;8.50;84.40
13992;DHT22;7070;53.586;9.692;2024-03-23T13:22:05;8.60;84.60
13992;DHT22;7070;53.586;9.692;2024-03-23T13:24:31;8.70;84.60
13992;DHT22;7070;53.586;9.692;2024-03-23T13:26:58;8.70;84.50
13992;DHT22;7070;53.586;9.692;2024-03-23T13:29:25;8.80;84.60
13992;DHT22;7070;53.586;9.692;2024-03-23T13:31:51;8.70;84.70
13992;DHT22;7070;53.586;9.692;2024-03-23T13:34:19;8.90;85.00
13992;DHT22;7070;53.586;9.692;2024-03-23T13:36:45;8.90;85.10
13992;DHT22;7070;53.586;9.692;2024-03-23T13:39:15;9.00;85.40
13992;DHT22;7070;53.586;9.692;2024-03-23T13:41:42;9.00;85.50
13992;DHT22;7070;53.586;9.692;2024-03-23T13:44:10;9.10;85.70
13992;DHT22;7070;53.586;9.692;2024-03-23T13:46:37;9.10;85.60
13992;DHT22;7070;53.586;9.692;2024-03-23T13:49:04;9.30;85.90
13992;DHT22;7070;53.586;9.692;2024-03-23T13:51:30;9.30;86.20
13992;DHT22;7070;53.586;9.692;2024-03-23T13:53:57;9.40;86.20
13992;DHT22;7070;53.586;9.692;2024-03-23T13:56:27;9.50;87.10
13992;DHT22;7070;53.586;9.692;2024-03-23T13:58:55;9.60;86.40
13992;DHT22;7070;53.586;9.692;2024-03-23T14:01:21;9.70;86.40
13992;DHT22;7070;53.586;9.692;2024-03-23T14:03:48;9.80;86.50
13992;DHT22;7070;53.586;9.692;2024-03-23T14:06:14;9.90;86.60
13992;DHT22;7070;53.586;9.692;2024-03-23T14:08:41;10.00;85.90
13992;DHT22;7070;53.586;9.692;2024-03-23T14:11:07;10.10;86.10
13992;DHT22;7070;53.586;9.692;2024-03-23T14:13:36;10.30;86.40
13992;DHT22;7070;53.586;9.692;2024-03-23T14:16:02;10.40;86.40
13992;DHT22;7070;53.586;9.692;2024-03-23T14:18:29;10.50;86.30
13992;DHT22;7070;53.586;9.692;2024-03-23T14:20:57;10.60;86.20
13992;DHT22;7070;53.586;9.692;2024-03-23T14:23:25;10.70;86.40
13992;DHT22;7070;53.586;9.692;2024-03-23T14:25:53;10.70;86.30
13992;DHT22;7070;53.586;9.692;2024-03-23T14:28:20;10.70;86.10
13992;DHT22;7070;53.586;9.692;2024-03-23T14:30:47;10.70;85.80
13992;DHT22;7070;53.586;9.692;2024-03-23T14:33:15;10.70;85.40
13992;DHT22;7070;53.586;9.692;2024-03-23T14:35:41;10.60;85.10
13992;DHT22;7070;53.586;9.692;2024-03-23T14:38:08;10.40;85.20
13992;DHT22;7070;53.586;9.692;2024-03-23T14:40:34;10.30;84.20
13992;DHT22;7070;53.586;9.692;2024-03-23T14:43:01;10.10;83.80
13992;DHT22;7070;53.586;9.692;2024-03-23T14:45:28;10.00;83.40
13992;DHT22;7070;53.586;9.692;2024-03-23T14:47:56;9.80;84.50
13992;DHT22;7070;53.586;9.692;2024-03-23T14:50:23;9.60;84.50
13992;DHT22;7070;53.586;9.692;2024-03-23T14:52:50;9.50;84.80
13992;DHT22;7070;53.586;9.692;2024-03-23T14:55:16;9.40;85.00
13992;DHT22;7070;53.586;9.692;2024-03-23T14:57:43;9.30;85.10
13992;DHT22;7070;53.586;9.692;2024-03-23T15:00:10;9.20;85.30
13992;DHT22;7070;53.586;9.692;2024-03-23T15:02:37;9.10;85.40
13992;DHT22;7070;53.586;9.692;2024-03-23T15:05:05;9.00;85.40
13992;DHT22;7070;53.586;9.692;2024-03-23T15:07:35;9.00;85.40
13992;DHT22;7070;53.586;9.692;2024-03-23T15:10:01;8.80;85.30
13992;DHT22;7070;53.586;9.692;2024-03-23T15:12:29;8.80;85.40
13992;DHT22;7070;53.586;9.692;2024-03-23T15:14:55;8.70;85.50
13992;DHT22;7070;53.586;9.692;2024-03-23T15:17:22;8.60;85.40
13992;DHT22;7070;53.586;9.692;2024-03-23T15:19:48;8.50;85.60
13992;DHT22;7070;53.586;9.692;2024-03-23T15:22:16;8.40;85.80
13992;DHT22;7070;53.586;9.692;2024-03-23T15:24:42;8.40;86.00
13992;DHT22;7070;53.586;9.692;2024-03-23T15:27:08;8.30;86.00
13992;DHT22;7070;53.586;9.692;2024-03-23T15:29:34;8.20;86.00
13992;DHT22;7070;53.586;9.692;2024-03-23T15:32:02;8.20;86.30
13992;DHT22;7070;53.586;9.692;2024-03-23T15:34:29;8.10;86.60
13992;DHT22;7070;53.586;9.692;2024-03-23T15:36:56;8.20;87.40
13992;DHT22;7070;53.586;9.692;2024-03-23T15:39:23;8.30;88.20
13992;DHT22;7070;53.586;9.692;2024-03-23T15:41:50;8.40;88.70
13992;DHT22;7070;53.586;9.692;2024-03-23T15:44:16;8.50;89.00
13992;DHT22;7070;53.586;9.692;2024-03-23T15:46:43;8.60;88.40
13992;DHT22;7070;53.586;9.692;2024-03-23T15:49:09;8.70;88.10
13992;DHT22;7070;53.586;9.692;2024-03-23T15:51:35;8.70;88.10
13992;DHT22;7070;53.586;9.692;2024-03-23T15:54:02;8.80;87.70
13992;DHT22;7070;53.586;9.692;2024-03-23T15:56:31;8.80;87.40
13992;DHT22;7070;53.586;9.692;2024-03-23T15:58:57;8.80;87.60
13992;DHT22;7070;53.586;9.692;2024-03-23T16:01:30;8.70;87.90
13992;DHT22;7070;53.586;9.692;2024-03-23T16:03:58;8.70;88.00
13992;DHT22;7070;53.586;9.692;2024-03-23T16:06:25;8.70;88.20
13992;DHT22;7070;53.586;9.692;2024-03-23T16:08:51;8.70;88.30
13992;DHT22;7070;53.586;9.692;2024-03-23T16:11:19;8.80;88.30
13992;DHT22;7070;53.586;9.692;2024-03-23T16:13:47;8.80;88.20
13992;DHT22;7070;53.586;9.692;2024-03-23T16:16:13;8.90;88.00
13992;DHT22;7070;53.586;9.692;2024-03-23T16:18:41;8.90;87.80
13992;DHT22;7070;53.586;9.692;2024-03-23T16:21:11;8.90;87.80
13992;DHT22;7070;53.586;9.692;2024-03-23T16:23:37;8.90;87.80
13992;DHT22;7070;53.586;9.692;2024-03-23T16:26:04;9.00;88.00
13992;DHT22;7070;53.586;9.692;2024-03-23T16:28:31;9.10;87.90
13992;DHT22;7070;53.586;9.692;2024-03-23T16:31:01;9.10;87.30
13992;DHT22;7070;53.586;9.692;2024-03-23T16:33:27;9.10;86.80
13992;DHT22;7070;53.586;9.692;2024-03-23T16:36:00;9.00;86.20
13992;DHT22;7070;53.586;9.692;2024-03-23T16:38:26;8.90;85.90
13992;DHT22;7070;53.586;9.692;2024-03-23T16:40:58;8.90;85.90
13992;DHT22;7070;53.586;9.692;2024-03-23T16:43:24;8.80;86.30
13992;DHT22;7070;53.586;9.692;2024-03-23T16:45:53;8.80;86.50
13992;DHT22;7070;53.586;9.692;2024-03-23T16:48:20;8.80;86.50
13992;DHT22;7070;53.586;9.692;2024-03-23T16:50:48;8.70;86.20
13992;DHT22;7070;53.586;9.692;2024-03-23T16:53:14;8.70;85.90